Etusivu
METAR-TAF:

METAR-TAF

Lentoasemat :

Quentin Aanenson Field

Luverne, Minnesota, Yhdysvallat

Leveyspiiri: 43-37-16N, Pituuspiiri: 096-12-58W, korkeus merenpinnasta: 436 m

Tämänhetkinen sää

Tämä raportti tehtiin 18 minuuttia sitten, kello 02.17 UTC
Tuuli 12 kn lännestä/luoteesta
Lämpötila 5°C
Kosteus 93%
Ilmanpaine 1007 hPa
Näkyvyys: 16.1 km
Hajonneita pilviä 1400 ft:n korkeudessa
Hajonneita pilviä 1900 ft:n korkeudessa
Pilvistä 4900 ft:n korkeudessa
tihkusadetta

METAR: KLYV 190217Z AUTO 30012KT 10SM DZ BKN014 BKN019 OVC049 05/04 A2973 RMK AO2

Aika: 20:35 (02:35 UTC)


TAF: puuttuu

Säähavainnot ja -ennusteet yli 4000 lentoasemalta (METAR- ja TAF-raportit).

Käytössä olevat sääasemat on merkitty karttaan keltaisilla ja punaisilla pisteillä.

Aseta hiiri pisteen päälle nähdäksesi sääaseman nimen.

Klikkaa sitten nähdäksesi säähavainnot ja -ennusteet.

Kartan vaihtaminen: klikkaa mustalla rastilla varustettuja vihreitä pisteitä, niin voit zoomata sisään; viivalla varustettua vihreää pistettä, niin voit zoomata ulos tai vihreitä nuolia, niin pääset viereisille kartoille.


METAR-TAF: